To NAV CANADA Home Page Login to a new session Search on AWWS site Feedback and Comments Disclaimer Vers la page française équivalente Tips FAQ What's new on the site To the Forecasts and Observations / NOTAM section To "File a Flight Plan" website Publications and other links Update of the User's profile FIC Telephone Numbers My Weather Data Folder Route Weather Data Regional Weather Data Local Weather Data To the Forecasts and Observations / NOTAM section
Request Generated 08/30/2015 at 11:48:59 UTC . Weather information available at that time is displayed.

METAR/TAF

MOOSE JAW/AIR VICE MARSHAL C.M. MCEWEN/SK    

SPECI CYMJ 301142Z 26006KT 3/4SM FU SCT120 BKN220 18/12 A2962 RMK FU1AC2CI3 SLP027=
METAR CYMJ 301100Z 28007KT 1 1/2SM FU SCT120 BKN220 18/12 A2963 RMK AC3CI2 FST OBS SLP028=

*** REMARK        : Forecast period has ended; this was the last TAF issued
*** REMARQUE : La période de prévision est échue; ceci était le dernier TAF qui a été émis
TAF AMD CYMJ 292325Z 2922/3006 FCST CNCLD DUE END OF FLYING PROGRAM
RMK NXT FCST WILL BE ISSUED AT 301215Z=
Your time UTC time
Weather data provided by Environment Canada and NAV CANADA